Time;durP1;ratioP1;P1;durP2;ratioP2;P2;SDS_P1;SDS_P2;PMS_P1;PMS_P2;Temp;Humidity;BMP_temperature;BMP_pressure;BME280_temperature;BME280_humidity;BME280_pressure;Samples;Min_cycle;Max_cycle;Signal;HPM_P1;HPM_P2
2023/01/04 18:14:55;;;;;;;29.37;8.07;;;;;;;10.37;100.00;101391.66;5272767;27;20472;-73
2023/01/04 18:17:26;;;;;;;39.70;8.67;;;;;;;10.40;100.00;101388.88;5270106;28;20033;-78
2023/01/04 18:19:58;;;;;;;36.33;8.70;;;;;;;10.45;100.00;101419.22;5294734;28;20036;-78
2023/01/04 18:22:31;;;;;;;29.30;8.00;;;;;;;10.48;100.00;101419.09;5270420;28;20039;-77
2023/01/04 18:25:03;;;;;;;36.07;9.27;;;;;;;10.49;100.00;101407.72;5268478;28;20517;-78
2023/01/04 18:27:34;;;;;;;29.60;7.80;;;;;;;10.48;100.00;101392.91;5270790;28;20071;-74
2023/01/04 18:30:07;;;;;;;46.40;9.63;;;;;;;10.55;100.00;101385.59;5270032;28;20395;-76
2023/01/04 18:32:39;;;;;;;37.33;8.23;;;;;;;10.60;100.00;101373.09;5270971;28;20043;-73
2023/01/04 18:35:10;;;;;;;35.10;8.87;;;;;;;10.59;100.00;101374.91;5270194;28;20032;-75
2023/01/04 18:37:44;;;;;;;32.37;8.00;;;;;;;10.62;100.00;101398.31;5264137;28;20017;-74
2023/01/04 18:40:15;;;;;;;37.15;8.38;;;;;;;10.62;100.00;101382.59;5268776;28;20625;-74
2023/01/04 18:42:47;;;;;;;36.30;8.50;;;;;;;10.69;100.00;101404.06;5271348;28;20107;-75
2023/01/04 18:45:19;;;;;;;36.37;7.87;;;;;;;10.59;100.00;101388.00;5260092;28;20466;-76
2023/01/04 18:47:51;;;;;;;38.10;9.53;;;;;;;10.71;100.00;101402.22;5260324;28;20123;-77
2023/01/04 18:50:22;;;;;;;37.13;11.00;;;;;;;10.69;100.00;101396.22;5262104;28;20028;-74
2023/01/04 18:52:53;;;;;;;36.53;9.87;;;;;;;10.76;100.00;101394.13;5261787;28;20554;-77
2023/01/04 18:55:25;;;;;;;39.60;9.97;;;;;;;10.64;100.00;101383.38;5257639;28;20050;-77
2023/01/04 18:57:56;;;;;;;38.33;8.70;;;;;;;10.73;100.00;101391.66;5260248;28;20025;-74
2023/01/04 19:00:28;;;;;;;42.07;9.07;;;;;;;10.77;100.00;101419.38;5260080;28;20492;-76
2023/01/04 19:03:00;;;;;;;35.07;8.60;;;;;;;10.75;100.00;101413.41;5259408;28;20029;-73
2023/01/04 19:05:31;;;;;;;35.70;8.07;;;;;;;10.76;100.00;101409.84;5260283;28;20028;-78
2023/01/04 19:08:03;;;;;;;41.77;10.57;;;;;;;10.70;100.00;101394.47;5260374;28;20031;-73
2023/01/04 19:10:34;;;;;;;36.00;9.20;;;;;;;10.71;100.00;101396.13;5259400;28;20124;-73
2023/01/04 19:13:05;;;;;;;36.67;9.70;;;;;;;10.75;100.00;101408.16;5258699;28;20045;-73
2023/01/04 19:15:37;;;;;;;38.90;10.33;;;;;;;10.73;100.00;101389.91;5258626;28;20392;-76
2023/01/04 19:18:09;;;;;;;39.33;9.20;;;;;;;10.60;100.00;101376.59;5259085;28;20574;-73
2023/01/04 19:20:41;;;;;;;37.00;8.90;;;;;;;10.76;100.00;101404.59;5261414;28;20380;-72
2023/01/04 19:23:12;;;;;;;38.80;8.90;;;;;;;10.74;100.00;101409.94;5260654;28;20036;-75
2023/01/04 19:25:43;;;;;;;38.80;10.70;;;;;;;10.73;100.00;101416.09;5249621;28;20057;-73
2023/01/04 19:28:15;;;;;;;43.20;9.73;;;;;;;10.74;100.00;101414.31;5247639;28;20033;-74
2023/01/04 19:30:46;;;;;;;42.03;9.00;;;;;;;10.70;100.00;101415.41;5247844;28;20079;-73
2023/01/04 19:33:17;;;;;;;37.47;10.43;;;;;;;10.76;100.00;101422.94;5247791;28;20029;-74
2023/01/04 19:35:49;;;;;;;39.33;8.53;;;;;;;10.76;100.00;101418.56;5247744;28;20021;-72
2023/01/04 19:38:20;;;;;;;44.27;9.83;;;;;;;10.77;100.00;101414.16;5246556;28;20729;-75
2023/01/04 19:40:58;;;;;;;39.83;9.07;;;;;;;10.74;100.00;101411.69;5247125;28;20029;-74
2023/01/04 19:43:30;;;;;;;34.37;8.57;;;;;;;10.71;100.00;101406.63;5246673;28;20441;-72
2023/01/04 19:46:06;;;;;;;36.07;8.43;;;;;;;10.72;100.00;101408.28;5245666;28;20175;-72
2023/01/04 19:48:38;;;;;;;33.27;9.23;;;;;;;10.75;100.00;101426.50;5244987;28;20040;-72
2023/01/04 19:51:14;;;;;;;35.20;9.03;;;;;;;10.77;100.00;101422.88;5245957;28;20037;-73
2023/01/04 19:53:46;;;;;;;37.40;9.43;;;;;;;10.74;100.00;101428.25;5245541;28;20090;-73
2023/01/04 19:56:17;;;;;;;40.27;9.40;;;;;;;10.69;100.00;101426.78;5247093;28;21357;-73
2023/01/04 19:58:49;;;;;;;39.50;9.80;;;;;;;10.69;100.00;101424.19;5247381;28;20580;-74
2023/01/04 20:01:22;;;;;;;32.90;9.27;;;;;;;10.75;100.00;101423.88;5246457;28;20117;-77
2023/01/04 20:03:53;;;;;;;48.23;9.67;;;;;;;10.68;100.00;101432.97;5246136;28;20086;-78
2023/01/04 20:06:25;;;;;;;39.80;9.87;;;;;;;10.73;100.00;101433.59;5246811;28;20033;-73
2023/01/04 20:08:57;;;;;;;34.90;8.57;;;;;;;10.70;100.00;101429.34;5245357;28;20048;-76
2023/01/04 20:11:28;;;;;;;30.93;8.57;;;;;;;10.70;100.00;101436.38;5244006;28;20039;-75
2023/01/04 20:13:59;;;;;;;36.53;8.30;;;;;;;10.62;100.00;101440.22;5245053;28;20063;-74
2023/01/04 20:16:31;;;;;;;34.73;9.07;;;;;;;10.65;100.00;101449.69;5244198;28;20025;-72
2023/01/04 20:19:02;;;;;;;28.90;7.83;;;;;;;10.63;100.00;101444.53;5245803;28;20132;-72
2023/01/04 20:21:33;;;;;;;28.50;9.37;;;;;;;10.59;100.00;101443.00;5245755;28;20041;-73
2023/01/04 20:24:05;;;;;;;33.77;6.73;;;;;;;10.68;100.00;101453.94;5248371;28;20029;-74
2023/01/04 20:26:38;;;;;;;32.37;7.30;;;;;;;10.56;100.00;101440.50;5247234;28;20084;-74
2023/01/04 20:29:09;;;;;;;30.97;9.30;;;;;;;10.65;100.00;101450.53;5248107;28;20102;-76
2023/01/04 20:31:41;;;;;;;35.00;8.50;;;;;;;10.58;100.00;101451.75;5247418;28;20102;-74
2023/01/04 20:34:13;;;;;;;37.53;8.40;;;;;;;10.65;100.00;101463.63;5245054;28;20029;-73
2023/01/04 20:36:44;;;;;;;32.97;6.93;;;;;;;10.65;100.00;101458.41;5244845;28;20043;-74
2023/01/04 20:39:15;;;;;;;30.83;7.40;;;;;;;10.63;100.00;101452.38;5245717;28;20028;-72
2023/01/04 20:44:37;;;;;;;32.13;8.53;;;;;;;10.63;100.00;101454.16;5248135;28;20049;-72
2023/01/04 20:47:08;;;;;;;32.33;8.03;;;;;;;10.58;100.00;101454.38;5252898;28;20081;-78
2023/01/04 20:49:39;;;;;;;31.80;7.17;;;;;;;10.58;100.00;101464.88;5254158;28;20029;-79
2023/01/04 20:52:11;;;;;;;30.13;8.23;;;;;;;10.55;100.00;101465.03;5253248;28;20132;-76
2023/01/04 20:54:42;;;;;;;35.60;10.03;;;;;;;10.62;100.00;101476.91;5252772;28;20029;-78
2023/01/04 20:57:13;;;;;;;41.47;8.57;;;;;;;10.56;100.00;101471.94;5254979;28;20044;-88
2023/01/04 20:59:45;;;;;;;35.57;7.87;;;;;;;10.49;100.00;101465.34;5254189;28;20017;-89
2023/01/04 21:02:16;;;;;;;35.53;8.17;;;;;;;10.58;100.00;101477.97;5255378;28;20043;-79
2023/01/04 21:04:48;;;;;;;30.27;8.40;;;;;;;10.56;100.00;101485.03;5255440;28;20410;-81
2023/01/04 21:07:19;;;;;;;36.93;8.40;;;;;;;10.58;100.00;101477.97;5255370;28;20033;-81
2023/01/04 21:09:50;;;;;;;30.80;7.50;;;;;;;10.52;100.00;101473.88;5253069;28;20116;-76
2023/01/04 21:12:21;;;;;;;31.70;7.83;;;;;;;10.58;100.00;101477.09;5251890;28;20037;-74
2023/01/04 21:14:53;;;;;;;32.93;8.93;;;;;;;10.56;100.00;101495.50;5254528;28;20085;-77
2023/01/04 21:17:24;;;;;;;40.93;11.40;;;;;;;10.60;100.00;101488.34;5252799;28;20047;-79
2023/01/04 21:19:55;;;;;;;30.47;7.70;;;;;;;10.54;100.00;101473.81;5253406;28;20143;-87
2023/01/04 21:22:26;;;;;;;36.17;9.73;;;;;;;10.60;100.00;101483.13;5252799;28;20036;-87
2023/01/04 21:24:58;;;;;;;33.17;10.47;;;;;;;10.60;100.00;101488.34;5253908;28;20048;-78
2023/01/04 21:27:29;;;;;;;38.37;8.70;;;;;;;10.55;100.00;101483.34;5255596;28;20032;-80
2023/01/04 21:30:00;;;;;;;39.27;9.73;;;;;;;10.57;100.00;101484.13;5254263;28;20029;-84
2023/01/04 21:32:32;;;;;;;37.00;8.87;;;;;;;10.57;100.00;101491.13;5248942;28;20028;-78
2023/01/04 21:35:04;;;;;;;34.20;9.13;;;;;;;10.59;100.00;101498.00;5253962;28;20394;-85
2023/01/04 21:37:35;;;;;;;37.00;8.50;;;;;;;10.59;100.00;101492.78;5254677;28;20028;-86
2023/01/04 21:40:07;;;;;;;31.33;7.73;;;;;;;10.56;100.00;101490.28;5252251;28;20066;-80
2023/01/04 21:42:38;;;;;;;39.77;7.97;;;;;;;10.57;100.00;101481.50;5252907;28;20501;-75
2023/01/04 21:45:10;;;;;;;40.00;9.27;;;;;;;10.60;100.00;101483.13;5247341;28;20120;-76
2023/01/04 21:47:41;;;;;;;38.47;9.67;;;;;;;10.57;100.00;101485.91;5250763;28;20033;-84
2023/01/04 21:50:12;;;;;;;31.53;8.47;;;;;;;10.55;100.00;101498.22;5253192;28;20036;-87
2023/01/04 21:52:44;;;;;;;34.20;10.17;;;;;;;10.54;100.00;101489.53;5253481;28;20025;-76
2023/01/04 21:55:15;;;;;;;34.47;10.27;;;;;;;10.52;100.00;101492.19;5248747;28;21043;-74
2023/01/04 21:57:46;;;;;;;35.37;8.77;;;;;;;10.50;100.00;101495.81;5281994;28;20029;-79
2023/01/04 22:00:17;;;;;;;33.50;9.33;;;;;;;10.51;100.00;101487.91;5250877;28;20025;-75
2023/01/04 22:02:49;;;;;;;35.50;8.43;;;;;;;10.48;100.00;101488.06;5242802;28;20052;-77
2023/01/04 22:05:21;;;;;;;32.23;8.33;;;;;;;10.51;100.00;101492.28;5251087;28;20128;-75
2023/01/04 22:07:52;;;;;;;34.37;8.37;;;;;;;10.55;100.00;101504.31;5250541;28;20079;-89
2023/01/04 22:10:24;;;;;;;34.40;8.97;;;;;;;10.49;100.00;101497.59;5250679;28;20412;-83
2023/01/04 22:12:55;;;;;;;30.57;8.10;;;;;;;10.45;100.00;101496.03;5251682;28;20700;-77
2023/01/04 22:15:26;;;;;;;27.40;7.03;;;;;;;10.38;100.00;101497.25;5251036;28;20438;-87
2023/01/04 22:17:57;;;;;;;36.97;8.23;;;;;;;10.42;100.00;101517.09;5251630;28;20408;-83
2023/01/04 22:20:29;;;;;;;35.93;10.43;;;;;;;10.46;100.00;101512.56;5250466;28;20025;-81
2023/01/04 22:23:00;;;;;;;38.37;9.00;;;;;;;10.37;100.00;101512.09;5250034;28;20063;-75
2023/01/04 22:25:35;;;;;;;36.57;8.87;;;;;;;10.43;100.00;101507.50;5251246;28;20031;-83
2023/01/04 22:28:06;;;;;;;33.40;8.23;;;;;;;10.38;100.00;101515.59;5251494;28;20017;-74
2023/01/04 22:30:40;;;;;;;44.00;10.10;;;;;;;10.38;100.00;101521.69;5250436;28;20028;-73
2023/01/04 22:33:11;;;;;;;31.93;8.43;;;;;;;10.34;100.00;101519.25;5250285;28;20029;-74
2023/01/04 22:35:42;;;;;;;38.57;8.73;;;;;;;10.33;100.00;101528.91;5251122;28;20029;-73
2023/01/04 22:38:14;;;;;;;33.60;8.10;;;;;;;10.26;100.00;101517.03;5250324;28;20030;-76
2023/01/04 22:40:45;;;;;;;34.37;8.70;;;;;;;10.27;100.00;101519.56;5250222;28;20108;-76
2023/01/04 22:43:16;;;;;;;39.77;9.47;;;;;;;10.15;100.00;101525.38;5247966;28;20029;-73
2023/01/04 22:45:48;;;;;;;34.30;8.20;;;;;;;10.13;100.00;101522.84;5243704;28;20028;-75
2023/01/04 22:48:19;;;;;;;33.40;8.93;;;;;;;10.14;100.00;101524.53;5250523;28;20026;-76
2023/01/04 22:50:50;;;;;;;34.10;7.80;;;;;;;10.14;100.00;101537.59;5249584;28;20025;-77
2023/01/04 22:53:22;;;;;;;36.00;9.60;;;;;;;10.11;100.00;101535.13;5248516;28;20044;-74
2023/01/04 22:55:53;;;;;;;32.03;8.00;;;;;;;10.11;100.00;101536.91;5250097;28;20018;-73
2023/01/04 22:58:24;;;;;;;31.20;8.23;;;;;;;10.09;100.00;101536.97;5250481;28;20017;-88
2023/01/04 23:00:56;;;;;;;29.70;9.20;;;;;;;10.05;100.00;101524.97;5253908;28;20025;-78
2023/01/04 23:03:27;;;;;;;37.53;8.50;;;;;;;9.97;100.00;101537.53;5254844;28;20048;-78
2023/01/04 23:05:58;;;;;;;37.10;8.93;;;;;;;10.02;100.00;101548.63;5254819;28;20108;-82
2023/01/04 23:08:30;;;;;;;40.00;7.90;;;;;;;9.95;100.00;101539.41;5254065;28;20025;-79
2023/01/04 23:11:05;;;;;;;41.20;9.20;;;;;;;9.95;100.00;101555.09;5254988;28;20679;-75
2023/01/04 23:13:36;;;;;;;28.07;7.17;;;;;;;9.98;100.00;101545.34;5256222;28;20107;-83
2023/01/04 23:16:12;;;;;;;31.43;8.23;;;;;;;10.00;100.00;101559.19;5255788;28;20384;-78
2023/01/04 23:18:43;;;;;;;34.97;9.93;;;;;;;9.96;100.00;101547.19;5254813;28;20056;-75
2023/01/04 23:21:15;;;;;;;36.33;7.93;;;;;;;9.97;100.00;101561.09;5254286;28;20060;-74
2023/01/04 23:23:48;;;;;;;33.00;8.37;;;;;;;9.93;100.00;101558.63;5253923;28;20049;-77
2023/01/04 23:26:21;;;;;;;38.83;9.17;;;;;;;9.95;100.00;101555.09;5255626;28;20162;-73
2023/01/04 23:28:53;;;;;;;31.20;9.37;;;;;;;9.95;100.00;101563.78;5255530;28;20475;-72
2023/01/04 23:31:27;;;;;;;39.73;9.07;;;;;;;9.96;100.00;101551.56;5254654;28;20025;-75
2023/01/04 23:34:02;;;;;;;32.20;6.60;;;;;;;9.91;100.00;101559.63;5254850;28;20464;-77
2023/01/04 23:36:36;;;;;;;35.50;6.63;;;;;;;9.93;100.00;101548.16;5251309;28;20064;-77
2023/01/04 23:39:12;;;;;;;39.28;7.70;;;;;;;10.02;100.00;101566.97;5258764;28;20063;-78
2023/01/04 23:41:43;;;;;;;35.60;8.93;;;;;;;9.97;100.00;101576.78;5254562;28;20025;-78
2023/01/04 23:44:20;;;;;;;32.37;7.93;;;;;;;10.01;100.00;101588.81;5252836;28;20028;-77
2023/01/04 23:46:56;;;;;;;36.53;7.13;;;;;;;10.00;100.00;101584.53;5255659;28;20037;-78
2023/01/04 23:49:29;;;;;;;30.53;7.50;;;;;;;9.99;100.00;101596.75;5254495;28;20021;-77
2023/01/04 23:52:01;;;;;;;26.87;6.47;;;;;;;10.03;100.00;101589.59;5256016;28;20059;-79
2023/01/04 23:54:33;;;;;;;30.80;7.93;;;;;;;10.02;100.00;101585.28;5254170;28;20055;-78
2023/01/04 23:57:05;;;;;;;28.10;6.80;;;;;;;10.03;100.00;101579.16;5254151;28;20029;-75
2023/01/04 23:59:36;;;;;;;33.23;8.07;;;;;;;10.01;100.00;101571.38;5255503;28;20036;-74
